sensor_id;sensor_type;location;lat;lon;timestamp;P1;durP1;ratioP1;P2;durP2;ratioP2
3171;SDS011;1597;51.572;6.992;2022-07-22T00:01:36;3.53;;;2.87;;
3171;SDS011;1597;51.572;6.992;2022-07-22T00:04:02;4.77;;;3.37;;
3171;SDS011;1597;51.572;6.992;2022-07-22T00:06:28;6.10;;;2.73;;
3171;SDS011;1597;51.572;6.992;2022-07-22T00:08:55;6.13;;;3.47;;
3171;SDS011;1597;51.572;6.992;2022-07-22T00:11:21;4.27;;;3.00;;
3171;SDS011;1597;51.572;6.992;2022-07-22T00:13:48;3.57;;;3.13;;
3171;SDS011;1597;51.572;6.992;2022-07-22T00:16:14;4.03;;;2.33;;
3171;SDS011;1597;51.572;6.992;2022-07-22T00:18:40;3.80;;;2.60;;
3171;SDS011;1597;51.572;6.992;2022-07-22T00:21:06;4.63;;;2.93;;
3171;SDS011;1597;51.572;6.992;2022-07-22T00:23:32;5.30;;;2.87;;
3171;SDS011;1597;51.572;6.992;2022-07-22T00:25:58;3.47;;;2.80;;
3171;SDS011;1597;51.572;6.992;2022-07-22T00:28:23;3.80;;;3.23;;
3171;SDS011;1597;51.572;6.992;2022-07-22T00:30:49;7.80;;;2.83;;
3171;SDS011;1597;51.572;6.992;2022-07-22T00:33:15;2.80;;;2.60;;
3171;SDS011;1597;51.572;6.992;2022-07-22T00:35:41;4.00;;;2.90;;
3171;SDS011;1597;51.572;6.992;2022-07-22T00:38:07;3.03;;;2.73;;
3171;SDS011;1597;51.572;6.992;2022-07-22T00:40:33;4.10;;;3.00;;
3171;SDS011;1597;51.572;6.992;2022-07-22T00:42:59;3.57;;;2.60;;
3171;SDS011;1597;51.572;6.992;2022-07-22T00:45:26;8.20;;;2.77;;
3171;SDS011;1597;51.572;6.992;2022-07-22T00:47:52;5.23;;;2.83;;
3171;SDS011;1597;51.572;6.992;2022-07-22T00:50:20;6.90;;;2.60;;
3171;SDS011;1597;51.572;6.992;2022-07-22T00:52:48;8.53;;;3.33;;
3171;SDS011;1597;51.572;6.992;2022-07-22T00:55:15;2.73;;;2.30;;
3171;SDS011;1597;51.572;6.992;2022-07-22T00:57:41;4.97;;;3.13;;
3171;SDS011;1597;51.572;6.992;2022-07-22T01:00:09;3.10;;;2.60;;
3171;SDS011;1597;51.572;6.992;2022-07-22T01:02:41;2.63;;;2.40;;
3171;SDS011;1597;51.572;6.992;2022-07-22T01:05:07;5.80;;;2.93;;
3171;SDS011;1597;51.572;6.992;2022-07-22T01:07:33;3.60;;;2.87;;
3171;SDS011;1597;51.572;6.992;2022-07-22T01:09:59;3.00;;;2.57;;
3171;SDS011;1597;51.572;6.992;2022-07-22T01:12:25;7.70;;;3.23;;
3171;SDS011;1597;51.572;6.992;2022-07-22T01:14:51;2.70;;;2.30;;
3171;SDS011;1597;51.572;6.992;2022-07-22T01:17:22;6.57;;;3.00;;
3171;SDS011;1597;51.572;6.992;2022-07-22T01:19:48;5.50;;;3.07;;
3171;SDS011;1597;51.572;6.992;2022-07-22T01:22:15;2.80;;;2.60;;
3171;SDS011;1597;51.572;6.992;2022-07-22T01:24:40;6.13;;;2.97;;
3171;SDS011;1597;51.572;6.992;2022-07-22T01:27:06;4.70;;;3.13;;
3171;SDS011;1597;51.572;6.992;2022-07-22T01:29:32;4.57;;;2.80;;
3171;SDS011;1597;51.572;6.992;2022-07-22T01:32:00;2.70;;;2.30;;
3171;SDS011;1597;51.572;6.992;2022-07-22T01:34:26;3.03;;;2.80;;
3171;SDS011;1597;51.572;6.992;2022-07-22T01:36:52;3.47;;;2.27;;
3171;SDS011;1597;51.572;6.992;2022-07-22T01:39:18;4.53;;;2.90;;
3171;SDS011;1597;51.572;6.992;2022-07-22T01:41:43;6.63;;;3.30;;
3171;SDS011;1597;51.572;6.992;2022-07-22T01:44:09;4.13;;;3.43;;
3171;SDS011;1597;51.572;6.992;2022-07-22T01:46:35;8.17;;;3.30;;
3171;SDS011;1597;51.572;6.992;2022-07-22T01:49:01;6.70;;;3.20;;
3171;SDS011;1597;51.572;6.992;2022-07-22T01:51:27;3.40;;;3.10;;
3171;SDS011;1597;51.572;6.992;2022-07-22T01:53:53;4.47;;;3.30;;
3171;SDS011;1597;51.572;6.992;2022-07-22T01:56:18;7.07;;;2.90;;
3171;SDS011;1597;51.572;6.992;2022-07-22T01:58:44;5.10;;;2.83;;
3171;SDS011;1597;51.572;6.992;2022-07-22T02:01:10;4.83;;;3.10;;
3171;SDS011;1597;51.572;6.992;2022-07-22T02:03:36;3.90;;;3.20;;
3171;SDS011;1597;51.572;6.992;2022-07-22T02:06:02;6.53;;;3.20;;
3171;SDS011;1597;51.572;6.992;2022-07-22T02:08:28;7.50;;;3.60;;
3171;SDS011;1597;51.572;6.992;2022-07-22T02:10:54;5.47;;;4.50;;
3171;SDS011;1597;51.572;6.992;2022-07-22T02:13:20;4.83;;;3.40;;
3171;SDS011;1597;51.572;6.992;2022-07-22T02:15:46;5.37;;;3.60;;
3171;SDS011;1597;51.572;6.992;2022-07-22T02:18:15;10.03;;;3.93;;
3171;SDS011;1597;51.572;6.992;2022-07-22T02:20:43;6.93;;;3.70;;
3171;SDS011;1597;51.572;6.992;2022-07-22T02:23:09;5.50;;;3.50;;
3171;SDS011;1597;51.572;6.992;2022-07-22T02:25:36;6.03;;;3.20;;
3171;SDS011;1597;51.572;6.992;2022-07-22T02:28:04;5.37;;;3.97;;
3171;SDS011;1597;51.572;6.992;2022-07-22T02:30:29;4.70;;;2.83;;
3171;SDS011;1597;51.572;6.992;2022-07-22T02:32:56;5.30;;;3.30;;
3171;SDS011;1597;51.572;6.992;2022-07-22T02:35:22;6.23;;;3.10;;
3171;SDS011;1597;51.572;6.992;2022-07-22T02:37:48;4.63;;;3.00;;
3171;SDS011;1597;51.572;6.992;2022-07-22T02:40:14;4.13;;;2.83;;
3171;SDS011;1597;51.572;6.992;2022-07-22T02:42:40;3.27;;;2.80;;
3171;SDS011;1597;51.572;6.992;2022-07-22T02:45:06;11.30;;;3.47;;
3171;SDS011;1597;51.572;6.992;2022-07-22T02:47:32;4.27;;;3.07;;
3171;SDS011;1597;51.572;6.992;2022-07-22T02:49:58;6.67;;;2.80;;
3171;SDS011;1597;51.572;6.992;2022-07-22T02:52:24;3.97;;;3.43;;
3171;SDS011;1597;51.572;6.992;2022-07-22T02:54:50;4.50;;;3.37;;
3171;SDS011;1597;51.572;6.992;2022-07-22T02:57:15;5.03;;;3.60;;
3171;SDS011;1597;51.572;6.992;2022-07-22T02:59:41;5.90;;;3.00;;
3171;SDS011;1597;51.572;6.992;2022-07-22T03:02:07;3.43;;;2.90;;
3171;SDS011;1597;51.572;6.992;2022-07-22T03:04:33;5.37;;;3.00;;
3171;SDS011;1597;51.572;6.992;2022-07-22T03:06:58;9.90;;;4.00;;
3171;SDS011;1597;51.572;6.992;2022-07-22T03:09:24;3.73;;;2.90;;
3171;SDS011;1597;51.572;6.992;2022-07-22T03:11:50;6.67;;;3.47;;
3171;SDS011;1597;51.572;6.992;2022-07-22T03:14:16;6.10;;;3.17;;
3171;SDS011;1597;51.572;6.992;2022-07-22T03:16:43;5.33;;;3.50;;
3171;SDS011;1597;51.572;6.992;2022-07-22T03:19:09;3.87;;;3.13;;
3171;SDS011;1597;51.572;6.992;2022-07-22T03:21:35;4.60;;;3.10;;
3171;SDS011;1597;51.572;6.992;2022-07-22T03:24:01;4.07;;;2.40;;
3171;SDS011;1597;51.572;6.992;2022-07-22T03:26:27;7.30;;;3.90;;
3171;SDS011;1597;51.572;6.992;2022-07-22T03:28:53;6.00;;;3.47;;
3171;SDS011;1597;51.572;6.992;2022-07-22T03:31:18;7.43;;;2.70;;
3171;SDS011;1597;51.572;6.992;2022-07-22T03:33:44;6.20;;;3.10;;
3171;SDS011;1597;51.572;6.992;2022-07-22T03:36:10;5.07;;;2.90;;
3171;SDS011;1597;51.572;6.992;2022-07-22T03:38:36;8.83;;;3.23;;
3171;SDS011;1597;51.572;6.992;2022-07-22T03:41:02;4.80;;;3.40;;
3171;SDS011;1597;51.572;6.992;2022-07-22T03:43:29;4.97;;;2.97;;
3171;SDS011;1597;51.572;6.992;2022-07-22T03:45:56;6.90;;;3.30;;
3171;SDS011;1597;51.572;6.992;2022-07-22T03:48:21;5.93;;;3.60;;
3171;SDS011;1597;51.572;6.992;2022-07-22T03:50:47;4.30;;;3.90;;
3171;SDS011;1597;51.572;6.992;2022-07-22T03:53:14;4.50;;;3.27;;
3171;SDS011;1597;51.572;6.992;2022-07-22T03:55:41;5.87;;;3.23;;
3171;SDS011;1597;51.572;6.992;2022-07-22T03:58:06;7.33;;;3.57;;
3171;SDS011;1597;51.572;6.992;2022-07-22T04:00:32;4.20;;;3.30;;
3171;SDS011;1597;51.572;6.992;2022-07-22T04:02:58;8.93;;;3.70;;
3171;SDS011;1597;51.572;6.992;2022-07-22T04:05:24;5.30;;;3.47;;
3171;SDS011;1597;51.572;6.992;2022-07-22T04:07:50;4.63;;;3.67;;
3171;SDS011;1597;51.572;6.992;2022-07-22T04:10:16;4.50;;;3.60;;
3171;SDS011;1597;51.572;6.992;2022-07-22T04:12:41;6.30;;;3.57;;
3171;SDS011;1597;51.572;6.992;2022-07-22T04:15:07;9.73;;;3.30;;
3171;SDS011;1597;51.572;6.992;2022-07-22T04:17:34;6.63;;;4.23;;
3171;SDS011;1597;51.572;6.992;2022-07-22T04:20:00;9.27;;;4.47;;
3171;SDS011;1597;51.572;6.992;2022-07-22T04:22:29;5.47;;;3.40;;
3171;SDS011;1597;51.572;6.992;2022-07-22T04:24:54;5.10;;;3.50;;
3171;SDS011;1597;51.572;6.992;2022-07-22T04:27:20;10.37;;;4.20;;
3171;SDS011;1597;51.572;6.992;2022-07-22T04:29:47;8.30;;;3.70;;
3171;SDS011;1597;51.572;6.992;2022-07-22T04:32:12;8.37;;;3.43;;
3171;SDS011;1597;51.572;6.992;2022-07-22T04:34:38;4.43;;;3.40;;
3171;SDS011;1597;51.572;6.992;2022-07-22T04:37:04;5.07;;;3.10;;
3171;SDS011;1597;51.572;6.992;2022-07-22T04:39:30;7.53;;;3.53;;
3171;SDS011;1597;51.572;6.992;2022-07-22T04:41:56;7.63;;;4.17;;
3171;SDS011;1597;51.572;6.992;2022-07-22T04:44:22;9.20;;;4.53;;
3171;SDS011;1597;51.572;6.992;2022-07-22T04:46:47;7.17;;;3.47;;
3171;SDS011;1597;51.572;6.992;2022-07-22T04:49:13;5.70;;;3.73;;
3171;SDS011;1597;51.572;6.992;2022-07-22T04:51:39;5.30;;;3.27;;
3171;SDS011;1597;51.572;6.992;2022-07-22T04:54:05;4.87;;;3.50;;
3171;SDS011;1597;51.572;6.992;2022-07-22T04:56:31;9.30;;;3.93;;
3171;SDS011;1597;51.572;6.992;2022-07-22T04:58:58;6.10;;;3.40;;
3171;SDS011;1597;51.572;6.992;2022-07-22T05:01:23;6.33;;;3.23;;
3171;SDS011;1597;51.572;6.992;2022-07-22T05:03:49;11.93;;;4.37;;
3171;SDS011;1597;51.572;6.992;2022-07-22T05:06:17;7.63;;;3.10;;
3171;SDS011;1597;51.572;6.992;2022-07-22T05:08:43;6.83;;;3.43;;
3171;SDS011;1597;51.572;6.992;2022-07-22T05:11:09;6.03;;;3.10;;
3171;SDS011;1597;51.572;6.992;2022-07-22T05:13:34;4.13;;;2.60;;
3171;SDS011;1597;51.572;6.992;2022-07-22T05:16:04;6.67;;;4.33;;
3171;SDS011;1597;51.572;6.992;2022-07-22T05:18:31;9.20;;;4.00;;
3171;SDS011;1597;51.572;6.992;2022-07-22T05:20:57;5.17;;;3.10;;
3171;SDS011;1597;51.572;6.992;2022-07-22T05:23:22;6.63;;;3.07;;
3171;SDS011;1597;51.572;6.992;2022-07-22T05:25:48;6.83;;;3.87;;
3171;SDS011;1597;51.572;6.992;2022-07-22T05:28:14;6.47;;;4.10;;
3171;SDS011;1597;51.572;6.992;2022-07-22T05:30:40;6.20;;;5.07;;
3171;SDS011;1597;51.572;6.992;2022-07-22T05:33:06;6.00;;;3.47;;
3171;SDS011;1597;51.572;6.992;2022-07-22T05:35:32;7.30;;;3.57;;
3171;SDS011;1597;51.572;6.992;2022-07-22T05:37:58;4.17;;;3.00;;
3171;SDS011;1597;51.572;6.992;2022-07-22T05:40:23;9.57;;;3.73;;
3171;SDS011;1597;51.572;6.992;2022-07-22T05:42:49;4.70;;;3.00;;
3171;SDS011;1597;51.572;6.992;2022-07-22T05:45:15;3.10;;;2.80;;
3171;SDS011;1597;51.572;6.992;2022-07-22T05:47:41;5.43;;;2.90;;
3171;SDS011;1597;51.572;6.992;2022-07-22T05:50:07;6.13;;;3.40;;
3171;SDS011;1597;51.572;6.992;2022-07-22T05:52:36;6.93;;;3.37;;
3171;SDS011;1597;51.572;6.992;2022-07-22T05:55:04;6.17;;;4.03;;
3171;SDS011;1597;51.572;6.992;2022-07-22T05:57:31;6.73;;;4.13;;
3171;SDS011;1597;51.572;6.992;2022-07-22T05:59:57;8.43;;;3.17;;
3171;SDS011;1597;51.572;6.992;2022-07-22T06:02:22;5.70;;;3.60;;
3171;SDS011;1597;51.572;6.992;2022-07-22T06:04:50;8.03;;;3.13;;
3171;SDS011;1597;51.572;6.992;2022-07-22T06:07:15;7.33;;;3.13;;
3171;SDS011;1597;51.572;6.992;2022-07-22T06:09:42;3.73;;;2.63;;
3171;SDS011;1597;51.572;6.992;2022-07-22T06:12:08;4.77;;;2.80;;
3171;SDS011;1597;51.572;6.992;2022-07-22T06:14:34;8.50;;;2.90;;
3171;SDS011;1597;51.572;6.992;2022-07-22T06:17:01;3.80;;;3.10;;
3171;SDS011;1597;51.572;6.992;2022-07-22T06:19:28;6.90;;;3.10;;
3171;SDS011;1597;51.572;6.992;2022-07-22T06:21:54;5.00;;;2.60;;
3171;SDS011;1597;51.572;6.992;2022-07-22T06:24:21;4.60;;;3.10;;
3171;SDS011;1597;51.572;6.992;2022-07-22T06:26:47;3.90;;;3.13;;
3171;SDS011;1597;51.572;6.992;2022-07-22T06:29:12;3.10;;;2.63;;
3171;SDS011;1597;51.572;6.992;2022-07-22T06:31:39;4.20;;;3.00;;
3171;SDS011;1597;51.572;6.992;2022-07-22T06:34:05;4.70;;;3.30;;
3171;SDS011;1597;51.572;6.992;2022-07-22T06:36:32;6.00;;;3.30;;
3171;SDS011;1597;51.572;6.992;2022-07-22T06:38:58;3.93;;;2.67;;
3171;SDS011;1597;51.572;6.992;2022-07-22T06:41:24;3.10;;;2.80;;
3171;SDS011;1597;51.572;6.992;2022-07-22T06:43:51;4.17;;;3.07;;
3171;SDS011;1597;51.572;6.992;2022-07-22T06:46:17;5.90;;;2.10;;
3171;SDS011;1597;51.572;6.992;2022-07-22T06:48:43;2.40;;;2.20;;
3171;SDS011;1597;51.572;6.992;2022-07-22T06:51:09;4.60;;;2.00;;
3171;SDS011;1597;51.572;6.992;2022-07-22T06:53:35;2.90;;;2.33;;
3171;SDS011;1597;51.572;6.992;2022-07-22T06:56:01;2.90;;;2.43;;
3171;SDS011;1597;51.572;6.992;2022-07-22T06:58:27;3.47;;;2.30;;
3171;SDS011;1597;51.572;6.992;2022-07-22T07:00:53;7.60;;;2.93;;
3171;SDS011;1597;51.572;6.992;2022-07-22T07:03:19;4.63;;;2.57;;
3171;SDS011;1597;51.572;6.992;2022-07-22T07:05:45;4.30;;;2.77;;
3171;SDS011;1597;51.572;6.992;2022-07-22T07:08:10;4.97;;;2.87;;
3171;SDS011;1597;51.572;6.992;2022-07-22T07:10:36;5.77;;;2.70;;
3171;SDS011;1597;51.572;6.992;2022-07-22T07:13:02;4.23;;;2.33;;
3171;SDS011;1597;51.572;6.992;2022-07-22T07:15:28;4.83;;;2.50;;
3171;SDS011;1597;51.572;6.992;2022-07-22T07:17:55;4.83;;;2.20;;
3171;SDS011;1597;51.572;6.992;2022-07-22T07:20:22;7.40;;;2.53;;
3171;SDS011;1597;51.572;6.992;2022-07-22T07:22:49;5.40;;;2.40;;
3171;SDS011;1597;51.572;6.992;2022-07-22T07:25:15;5.13;;;2.80;;
3171;SDS011;1597;51.572;6.992;2022-07-22T07:27:42;6.33;;;3.27;;
3171;SDS011;1597;51.572;6.992;2022-07-22T07:30:08;4.57;;;2.70;;
3171;SDS011;1597;51.572;6.992;2022-07-22T07:32:35;4.87;;;3.67;;
3171;SDS011;1597;51.572;6.992;2022-07-22T07:35:02;4.07;;;3.67;;
3171;SDS011;1597;51.572;6.992;2022-07-22T07:37:29;6.97;;;3.57;;
3171;SDS011;1597;51.572;6.992;2022-07-22T07:39:58;7.27;;;4.43;;
3171;SDS011;1597;51.572;6.992;2022-07-22T07:42:24;3.27;;;2.33;;
3171;SDS011;1597;51.572;6.992;2022-07-22T07:44:51;3.80;;;3.50;;
3171;SDS011;1597;51.572;6.992;2022-07-22T07:47:16;3.40;;;2.80;;
3171;SDS011;1597;51.572;6.992;2022-07-22T07:49:45;7.07;;;5.40;;
3171;SDS011;1597;51.572;6.992;2022-07-22T07:52:12;6.20;;;4.00;;
3171;SDS011;1597;51.572;6.992;2022-07-22T07:54:39;6.50;;;5.17;;
3171;SDS011;1597;51.572;6.992;2022-07-22T07:57:08;3.47;;;3.17;;
3171;SDS011;1597;51.572;6.992;2022-07-22T07:59:36;5.10;;;4.00;;
3171;SDS011;1597;51.572;6.992;2022-07-22T08:02:05;3.20;;;2.90;;
3171;SDS011;1597;51.572;6.992;2022-07-22T08:04:33;9.00;;;4.20;;
3171;SDS011;1597;51.572;6.992;2022-07-22T08:07:00;5.03;;;2.70;;
3171;SDS011;1597;51.572;6.992;2022-07-22T08:09:27;6.77;;;4.60;;
3171;SDS011;1597;51.572;6.992;2022-07-22T08:11:52;6.57;;;4.77;;
3171;SDS011;1597;51.572;6.992;2022-07-22T08:14:18;5.37;;;4.87;;
3171;SDS011;1597;51.572;6.992;2022-07-22T08:16:44;6.90;;;3.50;;
3171;SDS011;1597;51.572;6.992;2022-07-22T08:19:10;7.90;;;2.83;;
3171;SDS011;1597;51.572;6.992;2022-07-22T08:21:36;4.10;;;2.80;;
3171;SDS011;1597;51.572;6.992;2022-07-22T08:24:02;7.10;;;2.73;;
3171;SDS011;1597;51.572;6.992;2022-07-22T08:26:28;4.63;;;3.17;;
3171;SDS011;1597;51.572;6.992;2022-07-22T08:28:54;2.30;;;2.10;;
3171;SDS011;1597;51.572;6.992;2022-07-22T08:31:20;4.40;;;2.50;;
3171;SDS011;1597;51.572;6.992;2022-07-22T08:33:46;2.73;;;2.53;;
3171;SDS011;1597;51.572;6.992;2022-07-22T08:36:13;3.77;;;2.87;;
3171;SDS011;1597;51.572;6.992;2022-07-22T08:38:38;5.00;;;2.17;;
3171;SDS011;1597;51.572;6.992;2022-07-22T08:41:04;4.57;;;3.10;;
3171;SDS011;1597;51.572;6.992;2022-07-22T08:43:31;3.37;;;2.17;;
3171;SDS011;1597;51.572;6.992;2022-07-22T08:46:02;3.37;;;2.80;;
3171;SDS011;1597;51.572;6.992;2022-07-22T08:48:28;3.37;;;2.47;;
3171;SDS011;1597;51.572;6.992;2022-07-22T08:50:55;5.20;;;4.23;;
3171;SDS011;1597;51.572;6.992;2022-07-22T08:53:21;4.70;;;3.03;;
3171;SDS011;1597;51.572;6.992;2022-07-22T08:55:47;4.00;;;3.60;;
3171;SDS011;1597;51.572;6.992;2022-07-22T08:58:14;3.53;;;3.20;;
3171;SDS011;1597;51.572;6.992;2022-07-22T09:00:42;6.60;;;2.87;;
3171;SDS011;1597;51.572;6.992;2022-07-22T09:03:21;3.57;;;3.00;;
3171;SDS011;1597;51.572;6.992;2022-07-22T09:05:53;5.20;;;2.63;;
3171;SDS011;1597;51.572;6.992;2022-07-22T09:08:20;3.37;;;2.70;;
3171;SDS011;1597;51.572;6.992;2022-07-22T09:10:47;5.87;;;2.80;;
3171;SDS011;1597;51.572;6.992;2022-07-22T09:13:15;35.10;;;6.20;;
3171;SDS011;1597;51.572;6.992;2022-07-22T09:15:51;5.40;;;3.73;;
3171;SDS011;1597;51.572;6.992;2022-07-22T09:18:19;4.63;;;3.10;;
3171;SDS011;1597;51.572;6.992;2022-07-22T09:20:49;2.90;;;2.70;;
3171;SDS011;1597;51.572;6.992;2022-07-22T09:23:24;14.00;;;10.90;;
3171;SDS011;1597;51.572;6.992;2022-07-22T09:25:51;8.90;;;3.90;;
3171;SDS011;1597;51.572;6.992;2022-07-22T09:28:19;5.37;;;2.80;;
3171;SDS011;1597;51.572;6.992;2022-07-22T09:30:49;3.93;;;3.00;;
3171;SDS011;1597;51.572;6.992;2022-07-22T09:33:19;4.50;;;3.40;;
3171;SDS011;1597;51.572;6.992;2022-07-22T09:35:47;5.40;;;3.10;;
3171;SDS011;1597;51.572;6.992;2022-07-22T09:38:14;4.23;;;2.93;;
3171;SDS011;1597;51.572;6.992;2022-07-22T09:40:45;3.60;;;3.30;;
3171;SDS011;1597;51.572;6.992;2022-07-22T09:43:13;4.30;;;3.43;;
3171;SDS011;1597;51.572;6.992;2022-07-22T09:45:52;7.03;;;3.23;;
3171;SDS011;1597;51.572;6.992;2022-07-22T09:48:24;4.50;;;3.80;;
3171;SDS011;1597;51.572;6.992;2022-07-22T09:50:51;6.77;;;4.37;;
3171;SDS011;1597;51.572;6.992;2022-07-22T09:53:21;7.37;;;3.90;;
3171;SDS011;1597;51.572;6.992;2022-07-22T09:55:53;3.07;;;2.77;;
3171;SDS011;1597;51.572;6.992;2022-07-22T09:58:21;5.30;;;3.10;;
3171;SDS011;1597;51.572;6.992;2022-07-22T10:00:47;4.37;;;3.07;;
3171;SDS011;1597;51.572;6.992;2022-07-22T10:05:55;4.03;;;3.10;;
3171;SDS011;1597;51.572;6.992;2022-07-22T10:08:23;6.20;;;3.20;;
3171;SDS011;1597;51.572;6.992;2022-07-22T10:10:52;3.57;;;3.27;;
3171;SDS011;1597;51.572;6.992;2022-07-22T10:13:19;5.30;;;4.80;;
3171;SDS011;1597;51.572;6.992;2022-07-22T10:15:45;5.13;;;3.30;;
3171;SDS011;1597;51.572;6.992;2022-07-22T10:18:16;5.70;;;2.80;;
3171;SDS011;1597;51.572;6.992;2022-07-22T10:20:44;6.70;;;3.17;;
3171;SDS011;1597;51.572;6.992;2022-07-22T10:23:11;6.03;;;4.27;;
3171;SDS011;1597;51.572;6.992;2022-07-22T10:28:29;5.43;;;4.63;;
3171;SDS011;1597;51.572;6.992;2022-07-22T10:31:20;4.93;;;4.13;;
3171;SDS011;1597;51.572;6.992;2022-07-22T10:33:55;6.30;;;4.43;;
3171;SDS011;1597;51.572;6.992;2022-07-22T10:36:29;7.73;;;4.30;;
3171;SDS011;1597;51.572;6.992;2022-07-22T10:39:02;7.20;;;3.87;;
3171;SDS011;1597;51.572;6.992;2022-07-22T10:41:37;8.30;;;5.00;;
3171;SDS011;1597;51.572;6.992;2022-07-22T10:44:06;4.90;;;3.70;;
3171;SDS011;1597;51.572;6.992;2022-07-22T10:49:28;5.73;;;5.07;;
3171;SDS011;1597;51.572;6.992;2022-07-22T10:54:33;10.33;;;9.33;;
3171;SDS011;1597;51.572;6.992;2022-07-22T10:57:00;8.60;;;6.13;;
3171;SDS011;1597;51.572;6.992;2022-07-22T10:59:26;15.57;;;13.03;;
3171;SDS011;1597;51.572;6.992;2022-07-22T11:01:53;8.17;;;5.27;;
3171;SDS011;1597;51.572;6.992;2022-07-22T11:04:26;8.97;;;5.93;;
3171;SDS011;1597;51.572;6.992;2022-07-22T11:06:54;8.13;;;7.10;;
3171;SDS011;1597;51.572;6.992;2022-07-22T11:09:30;8.70;;;6.27;;
3171;SDS011;1597;51.572;6.992;2022-07-22T11:11:58;4.20;;;3.80;;
3171;SDS011;1597;51.572;6.992;2022-07-22T11:16:59;7.87;;;6.20;;
3171;SDS011;1597;51.572;6.992;2022-07-22T11:19:38;8.67;;;5.90;;
3171;SDS011;1597;51.572;6.992;2022-07-22T11:22:05;9.70;;;8.10;;
3171;SDS011;1597;51.572;6.992;2022-07-22T11:24:38;8.57;;;5.60;;
3171;SDS011;1597;51.572;6.992;2022-07-22T11:27:09;8.97;;;6.40;;
3171;SDS011;1597;51.572;6.992;2022-07-22T11:29:40;8.30;;;5.90;;
3171;SDS011;1597;51.572;6.992;2022-07-22T11:32:11;6.30;;;5.03;;
3171;SDS011;1597;51.572;6.992;2022-07-22T11:34:40;8.07;;;6.67;;
3171;SDS011;1597;51.572;6.992;2022-07-22T11:37:11;9.73;;;7.40;;
3171;SDS011;1597;51.572;6.992;2022-07-22T11:39:39;10.00;;;7.00;;
3171;SDS011;1597;51.572;6.992;2022-07-22T11:42:05;8.50;;;7.63;;
3171;SDS011;1597;51.572;6.992;2022-07-22T11:44:33;10.20;;;9.07;;
3171;SDS011;1597;51.572;6.992;2022-07-22T11:47:01;20.57;;;16.20;;
3171;SDS011;1597;51.572;6.992;2022-07-22T11:49:29;9.67;;;8.67;;
3171;SDS011;1597;51.572;6.992;2022-07-22T11:52:02;13.37;;;10.67;;
3171;SDS011;1597;51.572;6.992;2022-07-22T11:54:32;10.30;;;7.73;;
3171;SDS011;1597;51.572;6.992;2022-07-22T11:56:59;11.60;;;8.03;;
3171;SDS011;1597;51.572;6.992;2022-07-22T11:59:25;8.90;;;7.00;;
3171;SDS011;1597;51.572;6.992;2022-07-22T12:01:51;10.97;;;8.27;;
3171;SDS011;1597;51.572;6.992;2022-07-22T12:04:19;9.40;;;7.47;;
3171;SDS011;1597;51.572;6.992;2022-07-22T12:06:50;11.27;;;7.63;;
3171;SDS011;1597;51.572;6.992;2022-07-22T12:09:25;14.00;;;8.70;;
3171;SDS011;1597;51.572;6.992;2022-07-22T12:11:57;12.57;;;9.77;;
3171;SDS011;1597;51.572;6.992;2022-07-22T12:14:26;9.60;;;8.70;;
3171;SDS011;1597;51.572;6.992;2022-07-22T12:17:05;12.00;;;8.83;;
3171;SDS011;1597;51.572;6.992;2022-07-22T12:19:37;10.60;;;9.37;;
3171;SDS011;1597;51.572;6.992;2022-07-22T12:22:06;15.17;;;10.23;;
3171;SDS011;1597;51.572;6.992;2022-07-22T12:24:39;13.20;;;10.17;;
3171;SDS011;1597;51.572;6.992;2022-07-22T12:27:08;12.03;;;10.60;;
3171;SDS011;1597;51.572;6.992;2022-07-22T12:37:31;16.30;;;13.37;;
3171;SDS011;1597;51.572;6.992;2022-07-22T12:40:06;12.67;;;10.70;;
3171;SDS011;1597;51.572;6.992;2022-07-22T12:42:44;12.80;;;11.10;;
3171;SDS011;1597;51.572;6.992;2022-07-22T12:45:14;14.70;;;10.30;;
3171;SDS011;1597;51.572;6.992;2022-07-22T12:53:18;15.53;;;10.73;;
3171;SDS011;1597;51.572;6.992;2022-07-22T12:55:54;13.03;;;11.17;;
3171;SDS011;1597;51.572;6.992;2022-07-22T12:58:29;12.87;;;11.60;;
3171;SDS011;1597;51.572;6.992;2022-07-22T13:00:58;15.90;;;11.87;;
3171;SDS011;1597;51.572;6.992;2022-07-22T13:03:26;13.50;;;11.53;;
3171;SDS011;1597;51.572;6.992;2022-07-22T13:05:56;15.27;;;13.47;;
3171;SDS011;1597;51.572;6.992;2022-07-22T13:08:25;15.13;;;12.13;;
3171;SDS011;1597;51.572;6.992;2022-07-22T13:10:54;13.60;;;10.93;;
3171;SDS011;1597;51.572;6.992;2022-07-22T13:13:23;12.43;;;11.13;;
3171;SDS011;1597;51.572;6.992;2022-07-22T13:15:49;19.83;;;12.20;;
3171;SDS011;1597;51.572;6.992;2022-07-22T13:18:16;14.77;;;12.37;;
3171;SDS011;1597;51.572;6.992;2022-07-22T13:20:42;12.60;;;10.97;;
3171;SDS011;1597;51.572;6.992;2022-07-22T13:23:09;17.73;;;11.37;;
3171;SDS011;1597;51.572;6.992;2022-07-22T13:25:35;13.93;;;10.50;;
3171;SDS011;1597;51.572;6.992;2022-07-22T13:28:01;12.53;;;10.20;;
3171;SDS011;1597;51.572;6.992;2022-07-22T13:30:27;14.70;;;12.13;;
3171;SDS011;1597;51.572;6.992;2022-07-22T13:32:53;14.07;;;11.93;;
3171;SDS011;1597;51.572;6.992;2022-07-22T13:35:19;13.37;;;11.13;;
3171;SDS011;1597;51.572;6.992;2022-07-22T13:37:45;10.67;;;8.80;;
3171;SDS011;1597;51.572;6.992;2022-07-22T13:40:12;9.00;;;8.10;;
3171;SDS011;1597;51.572;6.992;2022-07-22T13:42:40;10.83;;;7.07;;
3171;SDS011;1597;51.572;6.992;2022-07-22T13:45:06;8.03;;;7.33;;
3171;SDS011;1597;51.572;6.992;2022-07-22T13:47:35;7.70;;;7.00;;
3171;SDS011;1597;51.572;6.992;2022-07-22T13:50:01;11.27;;;7.20;;
3171;SDS011;1597;51.572;6.992;2022-07-22T13:52:27;11.00;;;7.87;;
3171;SDS011;1597;51.572;6.992;2022-07-22T13:54:53;10.43;;;8.53;;
3171;SDS011;1597;51.572;6.992;2022-07-22T13:57:19;9.53;;;7.13;;
3171;SDS011;1597;51.572;6.992;2022-07-22T13:59:45;7.97;;;7.17;;
3171;SDS011;1597;51.572;6.992;2022-07-22T14:02:11;8.50;;;7.70;;
3171;SDS011;1597;51.572;6.992;2022-07-22T14:04:37;8.57;;;7.77;;
3171;SDS011;1597;51.572;6.992;2022-07-22T14:07:03;8.07;;;7.37;;
3171;SDS011;1597;51.572;6.992;2022-07-22T14:09:28;7.50;;;6.67;;
3171;SDS011;1597;51.572;6.992;2022-07-22T14:11:54;9.83;;;8.83;;
3171;SDS011;1597;51.572;6.992;2022-07-22T14:14:21;17.73;;;15.93;;
3171;SDS011;1597;51.572;6.992;2022-07-22T14:16:47;11.80;;;10.70;;
3171;SDS011;1597;51.572;6.992;2022-07-22T14:19:14;10.93;;;9.83;;
3171;SDS011;1597;51.572;6.992;2022-07-22T14:21:42;10.87;;;9.80;;
3171;SDS011;1597;51.572;6.992;2022-07-22T14:24:10;10.13;;;9.13;;
3171;SDS011;1597;51.572;6.992;2022-07-22T14:26:37;16.33;;;14.70;;
3171;SDS011;1597;51.572;6.992;2022-07-22T14:29:04;38.73;;;30.90;;
3171;SDS011;1597;51.572;6.992;2022-07-22T14:31:31;11.13;;;10.03;;
3171;SDS011;1597;51.572;6.992;2022-07-22T14:33:58;9.97;;;8.97;;
3171;SDS011;1597;51.572;6.992;2022-07-22T14:36:24;10.97;;;9.90;;
3171;SDS011;1597;51.572;6.992;2022-07-22T14:38:50;13.13;;;10.80;;
3171;SDS011;1597;51.572;6.992;2022-07-22T14:41:16;16.80;;;14.70;;
3171;SDS011;1597;51.572;6.992;2022-07-22T14:43:42;18.67;;;16.37;;
3171;SDS011;1597;51.572;6.992;2022-07-22T14:46:08;11.60;;;9.77;;
3171;SDS011;1597;51.572;6.992;2022-07-22T14:48:36;11.43;;;10.00;;
3171;SDS011;1597;51.572;6.992;2022-07-22T14:51:03;9.87;;;8.23;;
3171;SDS011;1597;51.572;6.992;2022-07-22T14:53:30;11.97;;;10.87;;
3171;SDS011;1597;51.572;6.992;2022-07-22T14:55:56;12.70;;;9.27;;
3171;SDS011;1597;51.572;6.992;2022-07-22T14:58:22;8.90;;;8.00;;
3171;SDS011;1597;51.572;6.992;2022-07-22T15:00:48;10.07;;;9.10;;
3171;SDS011;1597;51.572;6.992;2022-07-22T15:03:14;10.73;;;9.60;;
3171;SDS011;1597;51.572;6.992;2022-07-22T15:05:41;10.43;;;9.53;;
3171;SDS011;1597;51.572;6.992;2022-07-22T15:08:08;9.80;;;7.10;;
3171;SDS011;1597;51.572;6.992;2022-07-22T15:10:34;8.60;;;6.83;;
3171;SDS011;1597;51.572;6.992;2022-07-22T15:13:00;6.50;;;5.90;;
3171;SDS011;1597;51.572;6.992;2022-07-22T15:15:26;6.90;;;6.20;;
3171;SDS011;1597;51.572;6.992;2022-07-22T15:17:52;6.10;;;5.50;;
3171;SDS011;1597;51.572;6.992;2022-07-22T15:20:20;6.10;;;5.40;;
3171;SDS011;1597;51.572;6.992;2022-07-22T15:22:46;7.53;;;6.73;;
3171;SDS011;1597;51.572;6.992;2022-07-22T15:25:12;8.30;;;7.20;;
3171;SDS011;1597;51.572;6.992;2022-07-22T15:27:38;6.60;;;6.00;;
3171;SDS011;1597;51.572;6.992;2022-07-22T15:30:05;7.50;;;5.30;;
3171;SDS011;1597;51.572;6.992;2022-07-22T15:32:34;6.10;;;4.43;;
3171;SDS011;1597;51.572;6.992;2022-07-22T15:35:01;6.43;;;5.53;;
3171;SDS011;1597;51.572;6.992;2022-07-22T15:37:28;4.90;;;4.50;;
3171;SDS011;1597;51.572;6.992;2022-07-22T15:39:54;4.97;;;4.47;;